createdAt,value
2023-11-04T00:00:19.087Z,92.03
2023-11-04T00:02:45.918Z,90.58
2023-11-04T00:05:12.803Z,89.28
2023-11-04T00:07:39.833Z,91.03
2023-11-04T00:10:07.259Z,90.56
2023-11-04T00:12:34.216Z,91.86
2023-11-04T00:15:01.273Z,91.93
2023-11-04T00:17:28.482Z,92.06
2023-11-04T00:19:55.276Z,91.91
2023-11-04T00:22:22.008Z,93.04
2023-11-04T00:24:50.899Z,92.94
2023-11-04T00:27:17.823Z,92.76
2023-11-04T00:29:44.908Z,93.27
2023-11-04T00:32:11.580Z,92.36
2023-11-04T00:34:38.341Z,92.44
2023-11-04T00:37:05.112Z,93.34
2023-11-04T00:39:31.923Z,93.66
2023-11-04T00:41:58.638Z,93.31
2023-11-04T00:44:25.639Z,93.05
2023-11-04T00:46:52.344Z,92.46
2023-11-04T00:49:19.130Z,92.57
2023-11-04T00:51:46.003Z,92.27
2023-11-04T00:54:12.734Z,91.96
2023-11-04T00:56:39.513Z,92.80
2023-11-04T00:59:06.196Z,92.56
2023-11-04T01:01:32.927Z,92.19
2023-11-04T01:03:59.645Z,92.36
2023-11-04T01:06:26.400Z,92.82
2023-11-04T01:08:53.086Z,93.66
2023-11-04T01:11:19.806Z,94.25
2023-11-04T01:13:47.770Z,92.81
2023-11-04T01:16:14.726Z,93.15
2023-11-04T01:18:41.467Z,93.34
2023-11-04T01:21:08.192Z,93.70
2023-11-04T01:23:37.198Z,93.99
2023-11-04T01:26:04.238Z,94.10
2023-11-04T01:28:31.555Z,94.89
2023-11-04T01:30:58.247Z,94.84
2023-11-04T01:33:27.433Z,93.56
2023-11-04T01:35:54.424Z,93.83
2023-11-04T01:38:21.167Z,95.03
2023-11-04T01:40:55.865Z,94.94
2023-11-04T01:43:30.608Z,94.49
2023-11-04T01:46:10.674Z,94.92
2023-11-04T01:48:38.062Z,93.55
2023-11-04T01:51:06.165Z,94.22
2023-11-04T01:53:34.617Z,94.94
2023-11-04T01:56:02.276Z,95.48
2023-11-04T01:58:32.689Z,95.93
2023-11-04T02:01:01.589Z,95.09
2023-11-04T02:03:31.862Z,95.12
2023-11-04T02:05:58.642Z,95.08
2023-11-04T02:08:25.337Z,94.84
2023-11-04T02:10:52.070Z,94.81
2023-11-04T02:13:18.857Z,94.89
2023-11-04T02:15:45.532Z,94.67
2023-11-04T02:18:12.187Z,95.77
2023-11-04T02:20:40.268Z,94.42
2023-11-04T02:23:06.930Z,95.05
2023-11-04T02:25:35.870Z,95.07
2023-11-04T02:28:02.634Z,95.08
2023-11-04T02:30:29.796Z,94.91
2023-11-04T02:32:56.635Z,94.30
2023-11-04T02:35:23.300Z,94.10
2023-11-04T02:37:51.577Z,94.21
2023-11-04T02:40:18.589Z,94.18
2023-11-04T02:42:45.440Z,94.12
2023-11-04T02:45:12.402Z,94.79
2023-11-04T02:47:39.192Z,94.33
2023-11-04T02:50:06.492Z,94.89
2023-11-04T02:52:33.160Z,95.03
2023-11-04T02:54:59.844Z,94.55
2023-11-04T02:57:26.803Z,94.45
2023-11-04T02:59:53.448Z,95.25
2023-11-04T03:02:20.600Z,95.17
2023-11-04T03:04:47.318Z,95.02
2023-11-04T03:07:14.051Z,95.44
2023-11-04T03:09:40.894Z,95.11
2023-11-04T03:12:07.856Z,95.68
2023-11-04T03:14:34.523Z,95.97
2023-11-04T03:17:01.205Z,96.25
2023-11-04T03:19:27.941Z,95.47
2023-11-04T03:21:57.942Z,95.47
2023-11-04T03:24:24.917Z,96.61
2023-11-04T03:26:52.886Z,96.48
2023-11-04T03:29:19.555Z,96.21
2023-11-04T03:31:46.309Z,96.82
2023-11-04T03:34:13.559Z,96.67
2023-11-04T03:36:40.269Z,96.15
2023-11-04T03:39:06.928Z,96.63
2023-11-04T03:41:33.685Z,97.51
2023-11-04T03:44:00.365Z,98.60
2023-11-04T03:46:27.265Z,97.81
2023-11-04T03:48:54.042Z,97.76
2023-11-04T03:51:20.802Z,98.28
2023-11-04T03:53:55.709Z,98.71
2023-11-04T03:56:23.304Z,99.06
2023-11-04T03:58:50.016Z,98.03
2023-11-04T04:01:16.699Z,99.09
2023-11-04T04:03:43.421Z,99.45
2023-11-04T04:06:10.317Z,99.66
2023-11-04T04:08:37.005Z,99.12
2023-11-04T04:11:04.067Z,99.06
2023-11-04T04:13:31.105Z,99.21
2023-11-04T04:15:57.929Z,98.99
2023-11-04T04:18:24.883Z,98.65
2023-11-04T04:20:51.680Z,98.30
2023-11-04T04:23:18.423Z,99.04
2023-11-04T04:25:45.365Z,99.39
2023-11-04T04:28:12.138Z,99.54
2023-11-04T04:30:38.797Z,99.52
2023-11-04T04:33:06.743Z,99.44
2023-11-04T04:35:33.561Z,99.68
2023-11-04T04:38:00.185Z,100.00
2023-11-04T04:40:28.759Z,99.46
2023-11-04T04:42:55.609Z,100.00
2023-11-04T04:45:22.500Z,100.00
2023-11-04T04:47:49.288Z,100.00
2023-11-04T04:50:16.094Z,100.00
2023-11-04T04:52:42.754Z,100.00
2023-11-04T04:55:09.597Z,100.00
2023-11-04T04:57:37.016Z,99.96
2023-11-04T05:00:07.369Z,99.89
2023-11-04T05:02:35.104Z,100.00
2023-11-04T05:05:02.026Z,99.78
2023-11-04T05:07:29.664Z,100.00
2023-11-04T05:09:57.079Z,100.00
2023-11-04T05:12:23.845Z,99.66
2023-11-04T05:14:50.502Z,100.00
2023-11-04T05:17:18.418Z,99.94
2023-11-04T05:19:45.491Z,100.00
2023-11-04T05:22:12.130Z,100.00
2023-11-04T05:24:38.907Z,100.00
2023-11-04T05:27:05.684Z,100.00
2023-11-04T05:29:32.377Z,100.00
2023-11-04T05:31:59.053Z,100.00
2023-11-04T05:34:25.760Z,100.00
2023-11-04T05:36:54.022Z,100.00
2023-11-04T05:39:20.840Z,100.00
2023-11-04T05:41:47.558Z,100.00
2023-11-04T05:44:14.292Z,99.86
2023-11-04T05:46:40.948Z,100.00
2023-11-04T05:49:08.061Z,100.00
2023-11-04T05:51:34.769Z,100.00
2023-11-04T05:54:01.425Z,100.00
2023-11-04T05:56:29.188Z,100.00
2023-11-04T05:58:55.879Z,100.00
2023-11-04T06:01:25.888Z,100.00
2023-11-04T06:03:52.894Z,100.00
2023-11-04T06:06:21.473Z,100.00
2023-11-04T06:08:48.590Z,100.00
2023-11-04T06:11:15.292Z,100.00
2023-11-04T06:13:44.260Z,100.00
2023-11-04T06:16:10.926Z,100.00
2023-11-04T06:18:42.072Z,100.00
2023-11-04T06:21:15.830Z,100.00
2023-11-04T06:23:42.468Z,100.00
2023-11-04T06:26:09.152Z,100.00
2023-11-04T06:28:35.788Z,100.00
2023-11-04T06:31:10.419Z,100.00
2023-11-04T06:33:37.161Z,100.00
2023-11-04T06:36:04.256Z,100.00
2023-11-04T06:38:31.129Z,100.00
2023-11-04T06:40:57.830Z,100.00
2023-11-04T06:43:24.536Z,100.00
2023-11-04T06:45:51.304Z,100.00
2023-11-04T06:48:18.046Z,100.00
2023-11-04T06:50:44.970Z,100.00
2023-11-04T06:53:11.862Z,100.00
2023-11-04T06:55:38.546Z,98.86
2023-11-04T06:58:05.398Z,98.63
2023-11-04T07:00:32.175Z,98.05
2023-11-04T07:02:58.965Z,98.18
2023-11-04T07:05:25.846Z,97.55
2023-11-04T07:07:53.371Z,95.42
2023-11-04T07:10:20.020Z,96.09
2023-11-04T07:12:46.745Z,95.92
2023-11-04T07:15:13.539Z,94.87
2023-11-04T07:17:40.213Z,94.12
2023-11-04T07:20:11.928Z,94.21
2023-11-04T07:22:38.731Z,92.95
2023-11-04T07:25:05.650Z,94.10
2023-11-04T07:27:32.578Z,93.19
2023-11-04T07:29:59.231Z,92.66
2023-11-04T07:32:25.886Z,92.36
2023-11-04T07:34:52.627Z,91.08
2023-11-04T07:37:19.511Z,91.62
2023-11-04T07:39:46.425Z,91.62
2023-11-04T07:42:13.766Z,89.29
2023-11-04T07:44:40.837Z,88.88
2023-11-04T07:47:07.620Z,87.14
2023-11-04T07:49:35.725Z,86.27
2023-11-04T07:52:02.486Z,85.38
2023-11-04T07:54:29.196Z,83.41
2023-11-04T07:56:55.866Z,82.64
2023-11-04T07:59:22.971Z,82.47
2023-11-04T08:01:49.588Z,82.37
2023-11-04T08:04:16.370Z,82.70
2023-11-04T08:06:43.394Z,82.04
2023-11-04T08:09:10.122Z,78.85
2023-11-04T08:11:36.824Z,78.41
2023-11-04T08:14:03.520Z,79.34
2023-11-04T08:16:30.590Z,76.37
2023-11-04T08:18:57.264Z,76.95
2023-11-04T08:21:24.986Z,76.29
2023-11-04T08:23:51.680Z,74.68
2023-11-04T08:26:18.315Z,73.76
2023-11-04T08:28:45.289Z,70.92
2023-11-04T08:31:11.997Z,71.68
2023-11-04T08:33:38.913Z,69.61
2023-11-04T08:36:08.416Z,70.42
2023-11-04T08:38:35.132Z,70.06
2023-11-04T08:41:02.062Z,69.29
2023-11-04T08:43:28.761Z,70.67
2023-11-04T08:45:55.737Z,68.75
2023-11-04T08:48:22.796Z,69.38
2023-11-04T08:50:49.517Z,67.33
2023-11-04T08:53:16.255Z,67.16
2023-11-04T08:55:42.951Z,67.54
2023-11-04T08:58:10.285Z,66.75
2023-11-04T09:00:37.056Z,65.79
2023-11-04T09:03:03.813Z,64.16
2023-11-04T09:05:33.813Z,65.53
2023-11-04T09:08:02.018Z,65.01
2023-11-04T09:10:28.932Z,63.79
2023-11-04T09:12:56.363Z,65.27
2023-11-04T09:15:23.162Z,65.01
2023-11-04T09:17:49.950Z,63.85
2023-11-04T09:20:16.745Z,63.17
2023-11-04T09:22:43.498Z,63.72
2023-11-04T09:25:11.013Z,62.76
2023-11-04T09:27:37.926Z,62.78
2023-11-04T09:30:05.240Z,61.77
2023-11-04T09:32:31.965Z,60.23
2023-11-04T09:34:58.755Z,59.67
2023-11-04T09:37:25.918Z,59.33
2023-11-04T09:39:52.674Z,59.63
2023-11-04T09:42:19.458Z,59.34
2023-11-04T09:44:46.317Z,57.04
2023-11-04T09:47:12.981Z,56.74
2023-11-04T09:49:39.772Z,58.12
2023-11-04T09:52:10.583Z,56.08
2023-11-04T09:54:38.270Z,56.99
2023-11-04T09:57:05.402Z,57.57
2023-11-04T09:59:33.694Z,55.69
2023-11-04T10:02:00.413Z,56.03
2023-11-04T10:04:28.094Z,55.51
2023-11-04T10:06:54.918Z,54.43
2023-11-04T10:09:22.005Z,54.71
2023-11-04T10:11:48.663Z,53.50
2023-11-04T10:14:15.514Z,54.28
2023-11-04T10:16:42.146Z,54.85
2023-11-04T10:19:09.925Z,56.26
2023-11-04T10:21:37.033Z,55.47
2023-11-04T10:24:07.042Z,54.88
2023-11-04T10:26:34.427Z,55.38
2023-11-04T10:29:01.321Z,54.44
2023-11-04T10:31:29.814Z,53.52
2023-11-04T10:34:01.264Z,53.89
2023-11-04T10:36:30.130Z,52.71
2023-11-04T10:39:02.307Z,53.44
2023-11-04T10:41:44.910Z,53.73
2023-11-04T10:44:11.721Z,53.37
2023-11-04T10:46:54.383Z,53.08
2023-11-04T10:49:25.899Z,53.69
2023-11-04T10:52:15.538Z,52.93
2023-11-04T10:54:50.230Z,53.52
2023-11-04T10:57:30.821Z,53.63
2023-11-04T11:00:12.869Z,53.98
2023-11-04T11:02:41.261Z,52.76
2023-11-04T11:05:12.345Z,52.26
2023-11-04T11:07:45.857Z,52.47
2023-11-04T11:10:20.512Z,53.52
2023-11-04T11:13:08.557Z,53.40
2023-11-04T11:15:36.485Z,54.82
2023-11-04T11:18:03.429Z,53.50
2023-11-04T11:20:32.386Z,52.71
2023-11-04T11:22:59.800Z,52.86
2023-11-04T11:25:40.082Z,52.75
2023-11-04T11:28:21.744Z,53.81
2023-11-04T11:30:55.753Z,54.62
2023-11-04T11:33:30.233Z,55.03
2023-11-04T11:36:00.743Z,55.14
2023-11-04T11:38:31.950Z,53.78
2023-11-04T11:41:16.573Z,51.84
2023-11-04T11:43:44.469Z,51.74
2023-11-04T11:46:11.394Z,53.10
2023-11-04T11:48:43.288Z,53.44
2023-11-04T11:51:12.694Z,51.69
2023-11-04T11:53:43.556Z,52.12
2023-11-04T11:56:10.446Z,51.50
2023-11-04T11:58:38.484Z,51.36
2023-11-04T12:01:06.738Z,51.76
2023-11-04T12:03:35.492Z,50.38
2023-11-04T12:06:03.492Z,50.62
2023-11-04T12:08:30.229Z,49.98
2023-11-04T12:10:56.867Z,50.67
2023-11-04T12:13:23.770Z,50.40
2023-11-04T12:15:51.048Z,49.17
2023-11-04T12:18:18.873Z,49.01
2023-11-04T12:20:46.630Z,49.40
2023-11-04T12:23:15.549Z,49.06
2023-11-04T12:25:43.475Z,49.19
2023-11-04T12:28:11.126Z,51.27
2023-11-04T12:30:38.207Z,51.70
2023-11-04T12:33:05.851Z,52.23
2023-11-04T12:35:36.589Z,52.69
2023-11-04T12:38:03.613Z,52.13
2023-11-04T12:40:31.399Z,53.11
2023-11-04T12:43:03.376Z,53.52
2023-11-04T12:45:31.217Z,54.02
2023-11-04T12:47:58.122Z,54.84
2023-11-04T12:50:24.910Z,55.27
2023-11-04T12:52:53.663Z,54.73
2023-11-04T12:55:20.998Z,55.72
2023-11-04T12:57:47.963Z,55.84
2023-11-04T13:00:15.730Z,55.58
2023-11-04T13:02:42.861Z,55.32
2023-11-04T13:05:10.194Z,54.95
2023-11-04T13:07:38.668Z,56.02
2023-11-04T13:10:09.547Z,55.56
2023-11-04T13:12:36.407Z,54.86
2023-11-04T13:15:03.231Z,53.67
2023-11-04T13:17:29.886Z,54.36
2023-11-04T13:19:56.589Z,54.51
2023-11-04T13:22:23.317Z,54.51
2023-11-04T13:24:50.034Z,54.83
2023-11-04T13:27:16.735Z,54.79
2023-11-04T13:29:43.785Z,54.54
2023-11-04T13:32:10.464Z,55.14
2023-11-04T13:34:37.578Z,54.75
2023-11-04T13:37:04.877Z,54.39
2023-11-04T13:39:31.648Z,53.77
2023-11-04T13:41:58.384Z,54.04
2023-11-04T13:44:25.053Z,53.78
2023-11-04T13:46:51.709Z,54.04
2023-11-04T13:49:18.543Z,53.81
2023-11-04T13:51:45.364Z,52.83
2023-11-04T13:54:13.464Z,52.96
2023-11-04T13:56:40.168Z,53.36
2023-11-04T13:59:08.248Z,53.66
2023-11-04T14:01:35.918Z,53.54
2023-11-04T14:04:03.407Z,53.10
2023-11-04T14:06:30.208Z,53.61
2023-11-04T14:08:56.946Z,54.33
2023-11-04T14:11:23.649Z,54.46
2023-11-04T14:13:50.292Z,54.50
2023-11-04T14:16:17.133Z,53.97
2023-11-04T14:18:43.913Z,53.42
2023-11-04T14:21:11.166Z,53.89
2023-11-04T14:23:38.171Z,54.22
2023-11-04T14:26:05.616Z,54.54
2023-11-04T14:28:32.301Z,54.97
2023-11-04T14:30:59.148Z,56.03
2023-11-04T14:33:26.190Z,56.05
2023-11-04T14:35:53.047Z,56.86
2023-11-04T14:38:19.930Z,56.97
2023-11-04T14:40:46.700Z,57.49
2023-11-04T14:43:13.968Z,56.92
2023-11-04T14:45:40.950Z,58.42
2023-11-04T14:48:08.134Z,57.64
2023-11-04T14:50:36.738Z,58.32
2023-11-04T14:53:03.652Z,59.70
2023-11-04T14:55:30.276Z,59.56
2023-11-04T14:57:57.154Z,59.76
2023-11-04T15:00:23.870Z,60.39
2023-11-04T15:02:52.459Z,61.08
2023-11-04T15:05:19.341Z,60.76
2023-11-04T15:07:46.557Z,61.91
2023-11-04T15:10:13.335Z,62.25
2023-11-04T15:12:40.163Z,63.54
2023-11-04T15:15:07.661Z,63.18
2023-11-04T15:17:34.855Z,64.19
2023-11-04T15:20:02.629Z,65.21
2023-11-04T15:22:29.369Z,64.16
2023-11-04T15:24:56.285Z,65.07
2023-11-04T15:27:22.935Z,65.97
2023-11-04T15:29:49.692Z,64.60
2023-11-04T15:32:16.372Z,65.01
2023-11-04T15:34:43.153Z,66.61
2023-11-04T15:37:11.378Z,66.91
2023-11-04T15:39:38.658Z,66.80
2023-11-04T15:42:05.594Z,66.81
2023-11-04T15:44:33.171Z,67.53
2023-11-04T15:47:00.222Z,67.46
2023-11-04T15:49:27.443Z,67.74
2023-11-04T15:51:54.813Z,70.66
2023-11-04T15:54:21.824Z,69.09
2023-11-04T15:56:48.545Z,70.14
2023-11-04T15:59:15.315Z,68.88
2023-11-04T16:01:42.092Z,69.39
2023-11-04T16:04:08.876Z,70.06
2023-11-04T16:06:35.946Z,71.49
2023-11-04T16:09:03.726Z,71.71
2023-11-04T16:11:30.930Z,71.11
2023-11-04T16:13:57.682Z,73.47
2023-11-04T16:16:24.917Z,73.41
2023-11-04T16:18:51.942Z,73.57
2023-11-04T16:21:19.045Z,74.34
2023-11-04T16:23:45.769Z,75.34
2023-11-04T16:26:14.090Z,76.75
2023-11-04T16:28:44.138Z,76.75
2023-11-04T16:31:20.967Z,77.64
2023-11-04T16:33:47.995Z,77.99
2023-11-04T16:36:14.664Z,78.18
2023-11-04T16:38:41.291Z,78.54
2023-11-04T16:41:08.663Z,79.14
2023-11-04T16:43:35.692Z,79.65
2023-11-04T16:46:02.369Z,80.93
2023-11-04T16:48:29.197Z,81.48
2023-11-04T16:50:56.356Z,81.93
2023-11-04T16:53:23.054Z,81.82
2023-11-04T16:55:50.117Z,82.14
2023-11-04T16:58:16.813Z,81.28
2023-11-04T17:00:43.601Z,80.85
2023-11-04T17:03:10.552Z,80.19
2023-11-04T17:05:37.337Z,80.25
2023-11-04T17:08:04.117Z,81.46
2023-11-04T17:10:31.040Z,80.44
2023-11-04T17:12:57.692Z,79.97
2023-11-04T17:15:24.374Z,82.45
2023-11-04T17:17:51.286Z,81.41
2023-11-04T17:20:18.097Z,82.22
2023-11-04T17:22:44.760Z,81.63
2023-11-04T17:25:11.613Z,80.87
2023-11-04T17:27:38.781Z,80.51
2023-11-04T17:30:08.318Z,80.62
2023-11-04T17:32:35.269Z,80.96
2023-11-04T17:35:07.013Z,80.47
2023-11-04T17:37:33.860Z,79.73
2023-11-04T17:40:00.594Z,79.58
2023-11-04T17:42:27.273Z,78.75
2023-11-04T17:44:53.967Z,77.40
2023-11-04T17:47:20.642Z,77.87
2023-11-04T17:49:49.090Z,78.37
2023-11-04T17:52:15.787Z,79.22
2023-11-04T17:54:42.501Z,78.30
2023-11-04T17:57:09.800Z,77.00
2023-11-04T17:59:36.454Z,77.23
2023-11-04T18:02:03.539Z,77.49
2023-11-04T18:04:30.405Z,78.48
2023-11-04T18:06:57.199Z,77.75
2023-11-04T18:09:26.038Z,78.61
2023-11-04T18:11:52.820Z,77.92
2023-11-04T18:14:19.565Z,78.70
2023-11-04T18:16:46.735Z,78.00
2023-11-04T18:19:13.952Z,77.90
2023-11-04T18:21:40.809Z,76.88
2023-11-04T18:24:09.073Z,77.69
2023-11-04T18:26:43.346Z,76.23
2023-11-04T18:29:13.694Z,76.03
2023-11-04T18:31:40.895Z,75.39
2023-11-04T18:34:07.982Z,74.54
2023-11-04T18:36:34.837Z,74.65
2023-11-04T18:39:01.480Z,75.36
2023-11-04T18:41:28.217Z,76.53
2023-11-04T18:43:54.940Z,76.98
2023-11-04T18:46:21.675Z,76.04
2023-11-04T18:48:49.832Z,76.95
2023-11-04T18:51:20.402Z,76.89
2023-11-04T18:53:47.202Z,76.26
2023-11-04T18:56:16.775Z,75.93
2023-11-04T18:58:43.488Z,76.33
2023-11-04T19:01:10.255Z,76.36
2023-11-04T19:03:37.288Z,76.26
2023-11-04T19:06:04.658Z,76.93
2023-11-04T19:08:35.023Z,76.53
2023-11-04T19:11:02.717Z,75.98
2023-11-04T19:13:30.133Z,76.04
2023-11-04T19:15:56.927Z,76.24
2023-11-04T19:18:23.795Z,76.12
2023-11-04T19:20:50.529Z,76.62
2023-11-04T19:23:17.252Z,76.21
2023-11-04T19:25:44.036Z,76.08
2023-11-04T19:28:10.913Z,75.98
2023-11-04T19:30:37.707Z,76.47
2023-11-04T19:33:04.730Z,77.13
2023-11-04T19:35:31.512Z,75.80
2023-11-04T19:37:58.370Z,76.05
2023-11-04T19:40:26.183Z,76.31
2023-11-04T19:42:53.014Z,76.44
2023-11-04T19:45:23.385Z,75.60
2023-11-04T19:47:50.910Z,74.03
2023-11-04T19:50:17.988Z,75.37
2023-11-04T19:52:47.816Z,75.54
2023-11-04T19:55:15.151Z,74.20
2023-11-04T19:57:42.181Z,73.82
2023-11-04T20:00:09.322Z,72.57
2023-11-04T20:02:36.171Z,73.76
2023-11-04T20:05:04.304Z,73.61
2023-11-04T20:07:31.150Z,73.56
2023-11-04T20:09:57.887Z,73.81
2023-11-04T20:12:24.588Z,74.34
2023-11-04T20:14:51.725Z,73.37
2023-11-04T20:17:19.973Z,73.58
2023-11-04T20:19:50.188Z,73.61
2023-11-04T20:22:17.644Z,73.89
2023-11-04T20:24:49.612Z,73.52
2023-11-04T20:27:23.914Z,74.29
2023-11-04T20:29:51.367Z,74.99
2023-11-04T20:32:18.321Z,74.37
2023-11-04T20:34:45.355Z,73.73
2023-11-04T20:37:12.230Z,74.22
2023-11-04T20:39:39.071Z,74.81
2023-11-04T20:42:06.268Z,75.53
2023-11-04T20:44:32.904Z,75.57
2023-11-04T20:46:59.593Z,77.62
2023-11-04T20:49:26.345Z,76.13
2023-11-04T20:51:53.805Z,77.43
2023-11-04T20:54:21.618Z,80.11
2023-11-04T20:56:50.235Z,81.84
2023-11-04T20:59:17.265Z,82.86
2023-11-04T21:01:44.829Z,82.93
2023-11-04T21:04:12.853Z,84.46
2023-11-04T21:06:40.213Z,84.86
2023-11-04T21:09:09.147Z,87.25
2023-11-04T21:11:36.162Z,88.83
2023-11-04T21:14:06.009Z,88.95
2023-11-04T21:16:32.763Z,90.67
2023-11-04T21:18:59.609Z,90.23
2023-11-04T21:21:27.010Z,91.00
2023-11-04T21:23:54.113Z,90.55
2023-11-04T21:26:22.177Z,92.55
2023-11-04T21:28:51.037Z,89.69
2023-11-04T21:31:18.868Z,90.80
2023-11-04T21:33:45.601Z,89.31
2023-11-04T21:36:12.706Z,89.67
2023-11-04T21:38:39.368Z,90.71
2023-11-04T21:41:06.076Z,90.83
2023-11-04T21:43:32.793Z,90.57
2023-11-04T21:45:59.516Z,90.16
2023-11-04T21:48:26.924Z,90.49
2023-11-04T21:50:53.749Z,89.75
2023-11-04T21:53:20.451Z,88.93
2023-11-04T21:55:47.132Z,89.07
2023-11-04T21:58:13.893Z,89.47
2023-11-04T22:00:40.655Z,89.84
2023-11-04T22:03:07.826Z,88.34
2023-11-04T22:05:34.626Z,89.26
2023-11-04T22:08:01.354Z,90.53
2023-11-04T22:10:28.061Z,90.50
2023-11-04T22:12:54.804Z,87.14
2023-11-04T22:15:21.446Z,89.01
2023-11-04T22:17:48.371Z,87.84
2023-11-04T22:20:15.353Z,85.98
2023-11-04T22:22:42.183Z,87.20
2023-11-04T22:25:09.296Z,86.52
2023-11-04T22:27:36.197Z,86.21
2023-11-04T22:30:03.171Z,87.41
2023-11-04T22:32:30.124Z,86.92
2023-11-04T22:34:56.753Z,86.60
2023-11-04T22:37:23.450Z,86.32
2023-11-04T22:39:50.231Z,86.04
2023-11-04T22:42:16.862Z,84.60
2023-11-04T22:44:43.501Z,85.08
2023-11-04T22:47:10.238Z,85.52
2023-11-04T22:49:36.922Z,85.89
2023-11-04T22:52:04.992Z,85.27
2023-11-04T22:54:31.727Z,84.44
2023-11-04T22:56:58.408Z,85.78
2023-11-04T22:59:25.059Z,85.38
2023-11-04T23:01:51.877Z,86.07
2023-11-04T23:04:19.203Z,85.42
2023-11-04T23:06:47.616Z,84.50
2023-11-04T23:09:14.424Z,84.09
2023-11-04T23:11:41.064Z,83.60
2023-11-04T23:14:07.856Z,82.69
2023-11-04T23:16:34.641Z,83.84
2023-11-04T23:19:03.192Z,83.41
2023-11-04T23:21:30.741Z,83.05
2023-11-04T23:23:57.481Z,84.88
2023-11-04T23:26:25.259Z,84.14
2023-11-04T23:28:52.057Z,83.99
2023-11-04T23:31:18.848Z,86.19
2023-11-04T23:33:45.573Z,83.44
2023-11-04T23:36:12.799Z,83.34
2023-11-04T23:38:39.526Z,83.69
2023-11-04T23:41:06.359Z,83.16
2023-11-04T23:43:33.214Z,83.09
2023-11-04T23:46:01.191Z,82.75
2023-11-04T23:48:28.255Z,83.50
2023-11-04T23:50:55.002Z,82.16
2023-11-04T23:53:21.834Z,82.57
2023-11-04T23:55:48.499Z,82.75
2023-11-04T23:58:15.228Z,82.76
